createdAt,value
2022-11-24T00:00:23.990Z,998.1
2022-11-24T00:01:27.178Z,998
2022-11-24T00:02:30.381Z,998.1
2022-11-24T00:03:34.128Z,998.1
2022-11-24T00:04:38.156Z,998.1
2022-11-24T00:05:41.615Z,998
2022-11-24T00:06:44.782Z,998
2022-11-24T00:07:47.820Z,998
2022-11-24T00:08:50.677Z,998
2022-11-24T00:09:54.213Z,998
2022-11-24T00:10:56.482Z,998.1
2022-11-24T00:11:59.722Z,998
2022-11-24T00:13:04.073Z,998.1
2022-11-24T00:14:07.803Z,998
2022-11-24T00:15:10.419Z,998.1
2022-11-24T00:16:13.737Z,998
2022-11-24T00:17:17.564Z,998
2022-11-24T00:18:20.451Z,998
2022-11-24T00:19:23.048Z,998.1
2022-11-24T00:20:25.774Z,998
2022-11-24T00:21:28.779Z,998.1
2022-11-24T00:22:31.970Z,998.1
2022-11-24T00:23:35.224Z,998.1
2022-11-24T00:24:38.373Z,998.1
2022-11-24T00:25:40.630Z,998.1
2022-11-24T00:26:44.139Z,998.1
2022-11-24T00:27:47.608Z,998.1
2022-11-24T00:28:51.915Z,998.1
2022-11-24T00:29:55.720Z,998.2
2022-11-24T00:30:58.791Z,998.1
2022-11-24T00:32:02.629Z,998.2
2022-11-24T00:33:05.891Z,998.1
2022-11-24T00:34:09.056Z,998.1
2022-11-24T00:35:12.230Z,998.2
2022-11-24T00:36:15.962Z,998.1
2022-11-24T00:37:19.726Z,998.1
2022-11-24T00:38:23.058Z,998.1
2022-11-24T00:39:25.700Z,998.2
2022-11-24T00:40:35.251Z,998.1
2022-11-24T00:41:38.599Z,998.1
2022-11-24T00:42:41.510Z,998.2
2022-11-24T00:43:44.675Z,998.2
2022-11-24T00:44:49.022Z,998.2
2022-11-24T00:45:52.386Z,998.2
2022-11-24T00:46:56.346Z,998.2
2022-11-24T00:47:59.894Z,998.2
2022-11-24T00:49:03.379Z,998.2
2022-11-24T00:50:06.540Z,998.2
2022-11-24T00:51:09.864Z,998.2
2022-11-24T00:52:13.210Z,998.2
2022-11-24T00:53:15.811Z,998.3
2022-11-24T00:54:19.342Z,998.2
2022-11-24T00:55:22.321Z,998.3
2022-11-24T00:56:24.967Z,998.3
2022-11-24T00:57:28.323Z,998.3
2022-11-24T00:58:31.599Z,998.3
2022-11-24T00:59:34.283Z,998.3
2022-11-24T01:00:38.282Z,998.3
2022-11-24T01:01:41.153Z,998.3
2022-11-24T01:02:44.417Z,998.3
2022-11-24T01:03:47.820Z,998.3
2022-11-24T01:04:51.092Z,998.3
2022-11-24T01:05:54.238Z,998.3
2022-11-24T01:06:57.142Z,998.3
2022-11-24T01:08:00.299Z,998.4
2022-11-24T01:09:03.682Z,998.4
2022-11-24T01:10:07.123Z,998.5
2022-11-24T01:11:10.332Z,998.4
2022-11-24T01:12:13.890Z,998.4
2022-11-24T01:13:16.406Z,998.5
2022-11-24T01:14:19.142Z,998.5
2022-11-24T01:15:22.026Z,998.5
2022-11-24T01:16:26.416Z,998.5
2022-11-24T01:17:30.005Z,998.5
2022-11-24T01:18:33.085Z,998.5
2022-11-24T01:19:35.511Z,998.5
2022-11-24T01:20:38.734Z,998.5
2022-11-24T01:21:41.880Z,998.6
2022-11-24T01:22:45.047Z,998.6
2022-11-24T01:23:47.824Z,998.6
2022-11-24T01:24:50.706Z,998.6
2022-11-24T01:25:53.667Z,998.6
2022-11-24T01:26:56.245Z,998.6
2022-11-24T01:27:59.603Z,998.6
2022-11-24T01:29:02.147Z,998.6
2022-11-24T01:30:05.643Z,998.6
2022-11-24T01:31:09.466Z,998.6
2022-11-24T01:32:14.143Z,998.7
2022-11-24T01:33:17.181Z,998.7
2022-11-24T01:34:20.093Z,998.7
2022-11-24T01:35:22.623Z,998.7
2022-11-24T01:36:25.870Z,998.6
2022-11-24T01:37:28.952Z,998.7
2022-11-24T01:38:32.469Z,998.6
2022-11-24T01:39:35.272Z,998.7
2022-11-24T01:40:37.787Z,998.7
2022-11-24T01:41:41.580Z,998.7
2022-11-24T01:42:44.738Z,998.7
2022-11-24T01:43:47.434Z,998.7
2022-11-24T01:44:50.054Z,998.6
2022-11-24T01:45:53.112Z,998.7
2022-11-24T01:46:56.572Z,998.7
2022-11-24T01:48:01.101Z,998.7
2022-11-24T01:49:04.488Z,998.7
2022-11-24T01:50:07.661Z,998.7
2022-11-24T01:51:09.900Z,998.7
2022-11-24T01:52:13.247Z,998.7
2022-11-24T01:53:16.045Z,998.7
2022-11-24T01:54:18.918Z,998.7
2022-11-24T01:55:21.712Z,998.7
2022-11-24T01:56:24.724Z,998.7
2022-11-24T01:57:27.579Z,998.7
2022-11-24T01:58:30.461Z,998.7
2022-11-24T01:59:33.364Z,998.8
2022-11-24T02:00:36.519Z,998.8
2022-11-24T02:01:39.385Z,998.8
2022-11-24T02:02:43.427Z,998.7
2022-11-24T02:03:48.155Z,998.8
2022-11-24T02:04:51.435Z,998.8
2022-11-24T02:05:54.565Z,998.8
2022-11-24T02:06:57.855Z,998.8
2022-11-24T02:08:00.653Z,998.8
2022-11-24T02:09:03.485Z,998.9
2022-11-24T02:10:06.805Z,998.9
2022-11-24T02:11:09.999Z,998.8
2022-11-24T02:12:13.508Z,998.8
2022-11-24T02:13:16.691Z,998.8
2022-11-24T02:14:19.863Z,998.9
2022-11-24T02:15:22.931Z,998.9
2022-11-24T02:16:26.168Z,998.9
2022-11-24T02:17:29.256Z,998.9
2022-11-24T02:18:31.942Z,998.9
2022-11-24T02:19:35.959Z,998.9
2022-11-24T02:20:38.836Z,998.8
2022-11-24T02:21:42.607Z,998.8
2022-11-24T02:22:45.480Z,998.9
2022-11-24T02:23:49.567Z,998.9
2022-11-24T02:24:52.290Z,998.9
2022-11-24T02:25:55.468Z,998.9
2022-11-24T02:26:58.723Z,998.9
2022-11-24T02:28:01.972Z,998.9
2022-11-24T02:29:04.675Z,998.9
2022-11-24T02:30:07.913Z,998.9
2022-11-24T02:31:10.953Z,998.9
2022-11-24T02:32:14.004Z,998.9
2022-11-24T02:33:17.218Z,999
2022-11-24T02:34:20.011Z,998.9
2022-11-24T02:35:24.311Z,999
2022-11-24T02:36:27.388Z,998.9
2022-11-24T02:37:29.651Z,999
2022-11-24T02:38:33.389Z,998.9
2022-11-24T02:39:37.095Z,999
2022-11-24T02:40:39.974Z,999
2022-11-24T02:41:43.326Z,998.9
2022-11-24T02:42:46.055Z,999
2022-11-24T02:43:48.303Z,999
2022-11-24T02:44:51.388Z,999
2022-11-24T02:45:53.822Z,999
2022-11-24T02:46:57.139Z,999
2022-11-24T02:48:00.115Z,998.9
2022-11-24T02:49:02.942Z,998.9
2022-11-24T02:50:05.182Z,998.9
2022-11-24T02:51:09.422Z,999
2022-11-24T02:52:12.554Z,999
2022-11-24T02:53:15.251Z,998.9
2022-11-24T02:54:18.108Z,999
2022-11-24T02:55:20.420Z,998.9
2022-11-24T02:56:23.310Z,998.9
2022-11-24T02:57:26.183Z,998.9
2022-11-24T02:58:29.636Z,999
2022-11-24T02:59:32.623Z,998.9
2022-11-24T03:00:35.535Z,999
2022-11-24T03:01:39.118Z,999
2022-11-24T03:02:42.370Z,999
2022-11-24T03:03:45.807Z,999
2022-11-24T03:04:48.445Z,999
2022-11-24T03:05:51.934Z,999
2022-11-24T03:06:55.971Z,999
2022-11-24T03:07:58.851Z,999
2022-11-24T03:09:01.733Z,999
2022-11-24T03:10:04.884Z,999
2022-11-24T03:11:08.311Z,999
2022-11-24T03:12:10.990Z,999
2022-11-24T03:13:14.749Z,999
2022-11-24T03:14:17.743Z,998.9
2022-11-24T03:15:20.910Z,999
2022-11-24T03:16:24.214Z,999
2022-11-24T03:17:27.234Z,999
2022-11-24T03:18:30.040Z,999
2022-11-24T03:19:32.753Z,999
2022-11-24T03:20:35.472Z,999.1
2022-11-24T03:21:38.395Z,999.1
2022-11-24T03:22:42.647Z,999.1
2022-11-24T03:23:45.373Z,999.1
2022-11-24T03:24:48.617Z,999.1
2022-11-24T03:25:52.097Z,999.1
2022-11-24T03:26:55.166Z,999.1
2022-11-24T03:27:58.063Z,999.1
2022-11-24T03:29:00.324Z,999.2
2022-11-24T03:30:03.563Z,999.1
2022-11-24T03:31:06.647Z,999.2
2022-11-24T03:32:09.938Z,999.2
2022-11-24T03:33:12.796Z,999.2
2022-11-24T03:34:15.245Z,999.2
2022-11-24T03:35:18.681Z,999.2
2022-11-24T03:36:21.332Z,999.2
2022-11-24T03:37:24.576Z,999.2
2022-11-24T03:38:28.847Z,999.2
2022-11-24T03:39:32.284Z,999.3
2022-11-24T03:40:35.511Z,999.2
2022-11-24T03:41:38.002Z,999.2
2022-11-24T03:42:41.003Z,999.2
2022-11-24T03:43:44.855Z,999.3
2022-11-24T03:44:47.371Z,999.3
2022-11-24T03:45:50.455Z,999.3
2022-11-24T03:46:53.351Z,999.3
2022-11-24T03:47:56.527Z,999.3
2022-11-24T03:48:59.499Z,999.3
2022-11-24T03:50:02.746Z,999.3
2022-11-24T03:51:06.022Z,999.4
2022-11-24T03:52:09.322Z,999.4
2022-11-24T03:53:12.765Z,999.3
2022-11-24T03:54:16.805Z,999.4
2022-11-24T03:55:19.893Z,999.4
2022-11-24T03:56:22.881Z,999.4
2022-11-24T03:57:25.879Z,999.4
2022-11-24T03:58:29.146Z,999.4
2022-11-24T03:59:31.897Z,999.4
2022-11-24T04:00:35.214Z,999.4
2022-11-24T04:01:38.227Z,999.4
2022-11-24T04:02:41.383Z,999.4
2022-11-24T04:03:44.593Z,999.4
2022-11-24T04:04:50.268Z,999.4
2022-11-24T04:05:53.550Z,999.5
2022-11-24T04:06:56.627Z,999.5
2022-11-24T04:08:00.090Z,999.5
2022-11-24T04:09:02.800Z,999.5
2022-11-24T04:10:07.050Z,999.5
2022-11-24T04:11:09.987Z,999.5
2022-11-24T04:12:12.788Z,999.5
2022-11-24T04:13:16.071Z,999.5
2022-11-24T04:14:19.434Z,999.5
2022-11-24T04:15:22.633Z,999.6
2022-11-24T04:16:25.244Z,999.6
2022-11-24T04:17:28.494Z,999.5
2022-11-24T04:18:31.492Z,999.5
2022-11-24T04:19:34.672Z,999.5
2022-11-24T04:20:37.982Z,999.6
2022-11-24T04:21:41.018Z,999.6
2022-11-24T04:22:44.300Z,999.6
2022-11-24T04:23:47.101Z,999.6
2022-11-24T04:24:50.075Z,999.6
2022-11-24T04:25:54.281Z,999.7
2022-11-24T04:26:57.133Z,999.7
2022-11-24T04:28:00.010Z,999.6
2022-11-24T04:29:03.244Z,999.7
2022-11-24T04:30:06.057Z,999.7
2022-11-24T04:31:08.955Z,999.7
2022-11-24T04:32:11.950Z,999.7
2022-11-24T04:33:14.572Z,999.7
2022-11-24T04:34:18.033Z,999.7
2022-11-24T04:35:21.327Z,999.7
2022-11-24T04:36:24.223Z,999.7
2022-11-24T04:37:27.233Z,999.7
2022-11-24T04:39:28.072Z,999.7
2022-11-24T04:40:33.887Z,999.7
2022-11-24T04:41:37.867Z,999.7
2022-11-24T04:42:40.391Z,999.8
2022-11-24T04:43:43.026Z,999.7
2022-11-24T04:44:46.104Z,999.7
2022-11-24T04:45:48.913Z,999.7
2022-11-24T04:46:52.028Z,999.7
2022-11-24T04:47:54.946Z,999.7
2022-11-24T04:48:58.180Z,999.7
2022-11-24T04:50:00.995Z,999.7
2022-11-24T04:51:04.684Z,999.7
2022-11-24T04:52:07.852Z,999.7
2022-11-24T04:53:10.643Z,999.6
2022-11-24T04:54:13.725Z,999.7
2022-11-24T04:55:17.023Z,999.7
2022-11-24T04:56:20.001Z,999.7
2022-11-24T04:57:24.049Z,999.7
2022-11-24T04:58:26.840Z,999.7
2022-11-24T04:59:29.806Z,999.7
2022-11-24T05:00:32.390Z,999.8
2022-11-24T05:01:35.599Z,999.8
2022-11-24T05:02:39.029Z,999.9
2022-11-24T05:03:42.224Z,999.9
2022-11-24T05:04:44.050Z,999.9
2022-11-24T05:05:47.493Z,1000
2022-11-24T05:06:49.732Z,999.9
2022-11-24T05:07:52.757Z,999.9
2022-11-24T05:08:56.532Z,1000
2022-11-24T05:10:00.067Z,1000
2022-11-24T05:11:03.279Z,999.9
2022-11-24T05:12:06.757Z,1000
2022-11-24T05:13:10.866Z,999.9
2022-11-24T05:14:14.206Z,999.9
2022-11-24T05:15:17.611Z,1000
2022-11-24T05:16:20.554Z,1000
2022-11-24T05:17:24.536Z,1000
2022-11-24T05:18:27.295Z,1000
2022-11-24T05:19:33.026Z,1000
2022-11-24T05:20:36.235Z,1000
2022-11-24T05:21:38.953Z,1000
2022-11-24T05:22:41.723Z,1000.1
2022-11-24T05:23:44.780Z,1000.1
2022-11-24T05:24:47.830Z,1000.1
2022-11-24T05:25:50.968Z,1000.2
2022-11-24T05:26:54.128Z,1000.2
2022-11-24T05:27:57.601Z,1000.2
2022-11-24T05:29:01.714Z,1000.2
2022-11-24T05:30:04.479Z,1000.2
2022-11-24T05:31:07.323Z,1000.2
2022-11-24T05:32:10.306Z,1000.2
2022-11-24T05:33:13.000Z,1000.2
2022-11-24T05:34:15.771Z,1000.2
2022-11-24T05:35:18.562Z,1000.3
2022-11-24T05:36:21.053Z,1000.2
2022-11-24T05:37:23.626Z,1000.2
2022-11-24T05:38:26.750Z,1000.3
2022-11-24T05:39:29.406Z,1000.3
2022-11-24T05:40:31.544Z,1000.2
2022-11-24T05:41:34.976Z,1000.3
2022-11-24T05:42:46.498Z,1000.3
2022-11-24T05:43:50.993Z,1000.3
2022-11-24T05:44:55.186Z,1000.3
2022-11-24T05:45:58.357Z,1000.3
2022-11-24T05:47:01.534Z,1000.3
2022-11-24T05:48:05.270Z,1000.3
2022-11-24T05:49:07.962Z,1000.3
2022-11-24T05:50:10.731Z,1000.4
2022-11-24T05:51:13.774Z,1000.3
2022-11-24T05:52:16.554Z,1000.4
2022-11-24T05:53:19.529Z,1000.4
2022-11-24T05:54:22.577Z,1000.4
2022-11-24T05:55:25.688Z,1000.4
2022-11-24T05:56:29.120Z,1000.4
2022-11-24T05:57:32.167Z,1000.5
2022-11-24T05:58:35.045Z,1000.5
2022-11-24T05:59:37.892Z,1000.4
2022-11-24T06:00:41.725Z,1000.5
2022-11-24T06:01:44.828Z,1000.5
2022-11-24T06:02:48.890Z,1000.5
2022-11-24T06:03:52.470Z,1000.5
2022-11-24T06:04:55.523Z,1000.5
2022-11-24T06:05:57.939Z,1000.5
2022-11-24T06:07:00.610Z,1000.5
2022-11-24T06:08:04.014Z,1000.5
2022-11-24T06:09:07.129Z,1000.5
2022-11-24T06:10:09.370Z,1000.5
2022-11-24T06:11:12.492Z,1000.5
2022-11-24T06:12:15.351Z,1000.5
2022-11-24T06:13:18.139Z,1000.5
2022-11-24T06:14:21.768Z,1000.5
2022-11-24T06:15:24.520Z,1000.6
2022-11-24T06:16:28.811Z,1000.6
2022-11-24T06:17:32.042Z,1000.6
2022-11-24T06:18:34.995Z,1000.6
2022-11-24T06:19:42.554Z,1000.6
2022-11-24T06:21:11.079Z,1000.6
2022-11-24T06:22:15.196Z,1000.6
2022-11-24T06:23:18.620Z,1000.6
2022-11-24T06:24:21.055Z,1000.7
2022-11-24T06:25:23.554Z,1000.7
2022-11-24T06:26:26.043Z,1000.7
2022-11-24T06:27:29.158Z,1000.7
2022-11-24T06:28:32.787Z,1000.7
2022-11-24T06:29:35.894Z,1000.7
2022-11-24T06:30:39.208Z,1000.8
2022-11-24T06:31:43.657Z,1000.8
2022-11-24T06:32:50.331Z,1000.8
2022-11-24T06:33:52.756Z,1000.8
2022-11-24T06:34:55.362Z,1000.8
2022-11-24T06:35:58.336Z,1000.8
2022-11-24T06:37:01.385Z,1000.8
2022-11-24T06:38:04.357Z,1000.9
2022-11-24T06:39:06.965Z,1000.9
2022-11-24T06:40:09.666Z,1000.9
2022-11-24T06:41:12.755Z,1000.9
2022-11-24T06:42:15.326Z,1000.8
2022-11-24T06:43:18.088Z,1000.8
2022-11-24T06:44:20.782Z,1000.9
2022-11-24T06:45:24.404Z,1000.9
2022-11-24T06:46:27.961Z,1000.9
2022-11-24T06:47:32.059Z,1000.8
2022-11-24T06:48:34.486Z,1000.9
2022-11-24T06:49:36.714Z,1001
2022-11-24T06:50:39.966Z,1001
2022-11-24T06:51:42.464Z,1001
2022-11-24T06:52:45.246Z,1001
2022-11-24T06:53:48.094Z,1001
2022-11-24T06:54:51.134Z,1001
2022-11-24T06:55:54.182Z,1001
2022-11-24T06:56:57.105Z,1001
2022-11-24T06:57:59.952Z,1001
2022-11-24T06:59:03.362Z,1001
2022-11-24T07:00:06.341Z,1001
2022-11-24T07:01:09.611Z,1001
2022-11-24T07:02:12.874Z,1001
2022-11-24T07:03:17.078Z,1001
2022-11-24T07:04:19.875Z,1001
2022-11-24T07:05:22.865Z,1001
2022-11-24T07:06:25.290Z,1001
2022-11-24T07:07:28.181Z,1001
2022-11-24T07:08:31.281Z,1001
2022-11-24T07:09:34.413Z,1001
2022-11-24T07:10:37.735Z,1001
2022-11-24T07:11:40.503Z,1001.1
2022-11-24T07:12:43.481Z,1001.1
2022-11-24T07:13:46.524Z,1001
2022-11-24T07:14:48.946Z,1001.1
2022-11-24T07:15:51.440Z,1001.1
2022-11-24T07:16:54.331Z,1001.1
2022-11-24T07:17:57.450Z,1001.1
2022-11-24T07:19:01.356Z,1001.1
2022-11-24T07:20:05.381Z,1001.1
2022-11-24T07:21:08.497Z,1001.2
2022-11-24T07:22:11.907Z,1001.2
2022-11-24T07:23:14.684Z,1001.2
2022-11-24T07:24:17.735Z,1001.2
2022-11-24T07:25:20.817Z,1001.3
2022-11-24T07:26:23.052Z,1001.3
2022-11-24T07:27:26.303Z,1001.3
2022-11-24T07:28:29.106Z,1001.3
2022-11-24T07:29:32.248Z,1001.3
2022-11-24T07:30:35.091Z,1001.3
2022-11-24T07:31:38.635Z,1001.3
2022-11-24T07:32:42.342Z,1001.4
2022-11-24T07:33:45.855Z,1001.4
2022-11-24T07:34:49.914Z,1001.4
2022-11-24T07:35:52.484Z,1001.4
2022-11-24T07:36:55.322Z,1001.4
2022-11-24T07:37:58.515Z,1001.4
2022-11-24T07:39:02.217Z,1001.4
2022-11-24T07:40:04.910Z,1001.4
2022-11-24T07:41:07.779Z,1001.4
2022-11-24T07:42:10.545Z,1001.4
2022-11-24T07:43:20.381Z,1001.4
2022-11-24T07:44:24.374Z,1001.4
2022-11-24T07:45:27.924Z,1001.4
2022-11-24T07:46:31.655Z,1001.4
2022-11-24T07:47:34.140Z,1001.4
2022-11-24T07:48:36.947Z,1001.5
2022-11-24T07:49:40.663Z,1001.5
2022-11-24T07:50:44.850Z,1001.5
2022-11-24T07:51:57.773Z,1001.5
2022-11-24T07:53:00.621Z,1001.5
2022-11-24T07:54:04.056Z,1001.5
2022-11-24T07:55:07.106Z,1001.6
2022-11-24T07:56:10.363Z,1001.5
2022-11-24T07:57:13.414Z,1001.5
2022-11-24T07:58:16.110Z,1001.5
2022-11-24T07:59:19.081Z,1001.5
2022-11-24T08:00:22.428Z,1001.5
2022-11-24T08:01:25.954Z,1001.5
2022-11-24T08:02:28.946Z,1001.5
2022-11-24T08:03:32.218Z,1001.5
2022-11-24T08:04:35.830Z,1001.5
2022-11-24T08:06:23.475Z,1001.5
2022-11-24T08:07:50.164Z,1001.5
2022-11-24T08:08:53.658Z,1001.5
2022-11-24T08:09:57.375Z,1001.5
2022-11-24T08:11:00.289Z,1001.5
2022-11-24T08:12:02.495Z,1001.5
2022-11-24T08:13:05.912Z,1001.6
2022-11-24T08:14:08.959Z,1001.6
2022-11-24T08:15:12.116Z,1001.7
2022-11-24T08:16:15.354Z,1001.7
2022-11-24T08:17:18.978Z,1001.7
2022-11-24T08:18:21.547Z,1001.7
2022-11-24T08:19:25.231Z,1001.7
2022-11-24T08:20:28.386Z,1001.7
2022-11-24T08:21:31.356Z,1001.7
2022-11-24T08:22:35.093Z,1001.7
2022-11-24T08:23:38.672Z,1001.7
2022-11-24T08:24:41.927Z,1001.7
2022-11-24T08:25:44.147Z,1001.7
2022-11-24T08:26:47.471Z,1001.8
2022-11-24T08:27:50.522Z,1001.7
2022-11-24T08:28:53.953Z,1001.8
2022-11-24T08:29:57.575Z,1001.8
2022-11-24T08:31:00.709Z,1001.7
2022-11-24T08:32:04.123Z,1001.8
2022-11-24T08:33:06.845Z,1001.7
2022-11-24T08:34:09.540Z,1001.8
2022-11-24T08:35:15.409Z,1001.7
2022-11-24T08:36:18.420Z,1001.7
2022-11-24T08:37:21.481Z,1001.8
2022-11-24T08:38:24.579Z,1001.8
2022-11-24T08:39:28.797Z,1001.8
2022-11-24T08:40:32.198Z,1001.8
2022-11-24T08:41:35.758Z,1001.8
2022-11-24T08:42:39.242Z,1001.8
2022-11-24T08:43:42.227Z,1001.8
2022-11-24T08:44:45.477Z,1001.8
2022-11-24T08:45:48.993Z,1001.9
2022-11-24T08:46:52.306Z,1001.9
2022-11-24T08:47:55.169Z,1001.9
2022-11-24T08:48:58.582Z,1001.9
2022-11-24T08:50:02.032Z,1001.9
2022-11-24T08:51:05.712Z,1002
2022-11-24T08:52:08.777Z,1001.9
2022-11-24T08:53:11.696Z,1001.9
2022-11-24T08:54:14.574Z,1002
2022-11-24T08:55:18.781Z,1002
2022-11-24T08:56:21.910Z,1002
2022-11-24T08:57:25.692Z,1002
2022-11-24T08:58:28.734Z,1002
2022-11-24T08:59:31.073Z,1002
2022-11-24T09:00:33.701Z,1002
2022-11-24T09:01:37.015Z,1002.1
2022-11-24T09:02:40.168Z,1002.1
2022-11-24T09:03:51.144Z,1002.1
2022-11-24T09:04:55.412Z,1002
2022-11-24T09:05:58.489Z,1002.1
2022-11-24T09:07:01.350Z,1002
2022-11-24T09:08:04.780Z,1002.1
2022-11-24T09:09:08.475Z,1002
2022-11-24T09:10:11.561Z,1002.1
2022-11-24T09:11:15.881Z,1002.1
2022-11-24T09:12:18.686Z,1002.1
2022-11-24T09:13:21.757Z,1002.2
2022-11-24T09:14:25.743Z,1002.1
2022-11-24T09:15:28.521Z,1002.2
2022-11-24T09:16:32.279Z,1002.1
2022-11-24T09:17:35.602Z,1002.2
2022-11-24T09:18:38.925Z,1002.2
2022-11-24T09:19:42.637Z,1002.2
2022-11-24T09:20:45.970Z,1002.2
2022-11-24T09:21:48.669Z,1002.3
2022-11-24T09:22:52.076Z,1002.2
2022-11-24T09:23:55.458Z,1002.2
2022-11-24T09:24:58.577Z,1002.3
2022-11-24T09:26:01.930Z,1002.3
2022-11-24T09:27:06.162Z,1002.3
2022-11-24T09:28:09.476Z,1002.4
2022-11-24T09:29:12.435Z,1002.3
2022-11-24T09:30:15.142Z,1002.4
2022-11-24T09:31:18.742Z,1002.4
2022-11-24T09:32:22.386Z,1002.4
2022-11-24T09:33:26.189Z,1002.4
2022-11-24T09:34:29.156Z,1002.4
2022-11-24T09:35:32.213Z,1002.4
2022-11-24T09:36:35.262Z,1002.4
2022-11-24T09:37:38.741Z,1002.4
2022-11-24T09:38:42.112Z,1002.4
2022-11-24T09:39:45.124Z,1002.4
2022-11-24T09:40:47.823Z,1002.4
2022-11-24T09:41:52.020Z,1002.3
2022-11-24T09:42:55.909Z,1002.3
2022-11-24T09:43:59.100Z,1002.3
2022-11-24T09:45:02.154Z,1002.4
2022-11-24T09:46:06.869Z,1002.4
2022-11-24T09:47:11.203Z,1002.4
2022-11-24T09:48:14.237Z,1002.3
2022-11-24T09:49:17.396Z,1002.4
2022-11-24T09:50:20.617Z,1002.4
2022-11-24T09:51:23.689Z,1002.4
2022-11-24T09:52:26.640Z,1002.4
2022-11-24T09:53:29.688Z,1002.4
2022-11-24T09:54:33.094Z,1002.4
2022-11-24T09:55:35.821Z,1002.4
2022-11-24T09:56:38.958Z,1002.5
2022-11-24T09:57:42.130Z,1002.4
2022-11-24T09:58:46.216Z,1002.5
2022-11-24T09:59:48.364Z,1002.5
2022-11-24T10:00:50.851Z,1002.5
2022-11-24T10:01:53.323Z,1002.5
2022-11-24T10:02:57.149Z,1002.5
2022-11-24T10:04:06.911Z,1002.5
2022-11-24T10:05:09.849Z,1002.5
2022-11-24T10:06:13.185Z,1002.5
2022-11-24T10:07:16.451Z,1002.5
2022-11-24T10:08:20.104Z,1002.5
2022-11-24T10:09:22.244Z,1002.5
2022-11-24T10:10:26.061Z,1002.5
2022-11-24T10:11:29.235Z,1002.5
2022-11-24T10:12:32.209Z,1002.5
2022-11-24T10:13:35.443Z,1002.6
2022-11-24T10:14:39.258Z,1002.6
2022-11-24T10:15:42.311Z,1002.6
2022-11-24T10:16:46.177Z,1002.5
2022-11-24T10:17:49.587Z,1002.5
2022-11-24T10:18:52.924Z,1002.5
2022-11-24T10:19:56.591Z,1002.5
2022-11-24T10:20:59.712Z,1002.6
2022-11-24T10:22:03.422Z,1002.5
2022-11-24T10:23:06.197Z,1002.5
2022-11-24T10:24:08.893Z,1002.5
2022-11-24T10:25:11.745Z,1002.6
2022-11-24T10:26:14.705Z,1002.6
2022-11-24T10:27:18.160Z,1002.6
2022-11-24T10:28:21.852Z,1002.7
2022-11-24T10:29:25.549Z,1002.6
2022-11-24T10:30:29.713Z,1002.6
2022-11-24T10:31:33.977Z,1002.5
2022-11-24T10:32:37.875Z,1002.6
2022-11-24T10:33:41.032Z,1002.5
2022-11-24T10:34:44.187Z,1002.5
2022-11-24T10:35:46.606Z,1002.5
2022-11-24T10:36:50.240Z,1002.5
2022-11-24T10:37:53.390Z,1002.5
2022-11-24T10:38:56.455Z,1002.5
2022-11-24T10:40:00.895Z,1002.5
2022-11-24T10:41:04.111Z,1002.5
2022-11-24T10:42:07.817Z,1002.5
2022-11-24T10:43:10.653Z,1002.5
2022-11-24T10:44:13.616Z,1002.5
2022-11-24T10:45:16.627Z,1002.5
2022-11-24T10:46:20.866Z,1002.5
2022-11-24T10:47:24.760Z,1002.5
2022-11-24T10:48:27.852Z,1002.5
2022-11-24T10:49:31.105Z,1002.5
2022-11-24T10:50:36.675Z,1002.5
2022-11-24T10:51:39.903Z,1002.5
2022-11-24T10:52:43.324Z,1002.5
2022-11-24T10:53:46.104Z,1002.5
2022-11-24T10:54:49.166Z,1002.5
2022-11-24T10:55:52.758Z,1002.5
2022-11-24T10:56:56.818Z,1002.5
2022-11-24T10:58:00.086Z,1002.5
2022-11-24T10:59:03.253Z,1002.5
2022-11-24T11:00:06.422Z,1002.5
2022-11-24T11:01:09.914Z,1002.5
2022-11-24T11:02:14.796Z,1002.5
2022-11-24T11:03:18.271Z,1002.5
2022-11-24T11:04:21.929Z,1002.5
2022-11-24T11:05:24.900Z,1002.5
2022-11-24T11:06:28.244Z,1002.5
2022-11-24T11:07:31.474Z,1002.5
2022-11-24T11:08:34.254Z,1002.5
2022-11-24T11:09:37.838Z,1002.5
2022-11-24T11:10:40.871Z,1002.5
2022-11-24T11:11:44.583Z,1002.6
2022-11-24T11:12:48.023Z,1002.6
2022-11-24T11:13:50.999Z,1002.6
2022-11-24T11:14:54.519Z,1002.6
2022-11-24T11:15:58.093Z,1002.6
2022-11-24T11:17:01.987Z,1002.6
2022-11-24T11:18:06.424Z,1002.6
2022-11-24T11:19:48.764Z,1002.6
2022-11-24T11:21:05.662Z,1002.7
2022-11-24T11:22:08.741Z,1002.7
2022-11-24T11:23:11.793Z,1002.7
2022-11-24T11:24:15.501Z,1002.7
2022-11-24T11:25:18.173Z,1002.7
2022-11-24T11:26:21.875Z,1002.6
2022-11-24T11:27:25.292Z,1002.6
2022-11-24T11:28:28.420Z,1002.6
2022-11-24T11:35:31.818Z,1002.7
2022-11-24T11:36:35.432Z,1002.7
2022-11-24T11:37:39.042Z,1002.7
2022-11-24T11:38:41.926Z,1002.7
2022-11-24T11:39:49.414Z,1002.7
2022-11-24T11:40:52.466Z,1002.7
2022-11-24T11:41:54.904Z,1002.7
2022-11-24T11:43:05.023Z,1002.7
2022-11-24T11:44:07.564Z,1002.8
2022-11-24T11:45:10.388Z,1002.8
2022-11-24T11:46:14.825Z,1002.8
2022-11-24T11:47:19.140Z,1002.8
2022-11-24T11:48:22.361Z,1002.8
2022-11-24T11:49:25.315Z,1002.8
2022-11-24T11:50:29.533Z,1002.8
2022-11-24T11:51:34.110Z,1002.8
2022-11-24T11:52:37.459Z,1002.8
2022-11-24T11:53:40.254Z,1002.8
2022-11-24T11:54:42.952Z,1002.8
2022-11-24T11:55:50.535Z,1002.8
2022-11-24T11:56:53.663Z,1002.9
2022-11-24T11:57:56.433Z,1002.9
2022-11-24T11:59:00.141Z,1003
2022-11-24T12:00:03.471Z,1002.9
2022-11-24T12:01:06.574Z,1003
2022-11-24T12:02:10.254Z,1002.9
2022-11-24T12:03:13.731Z,1002.9
2022-11-24T12:04:17.952Z,1003
2022-11-24T12:05:21.425Z,1003
2022-11-24T12:06:25.131Z,1003
2022-11-24T12:07:29.095Z,1003
2022-11-24T12:09:19.023Z,1003
2022-11-24T12:10:23.952Z,1003
2022-11-24T12:11:26.811Z,1003
2022-11-24T12:12:30.322Z,1003
2022-11-24T12:13:33.726Z,1003
2022-11-24T12:14:39.952Z,1003
2022-11-24T12:15:43.344Z,1003
2022-11-24T12:16:47.226Z,1003.1
2022-11-24T12:17:49.645Z,1003.1
2022-11-24T12:18:59.189Z,1003.1
2022-11-24T12:20:02.354Z,1003.1
2022-11-24T12:21:05.330Z,1003.1
2022-11-24T12:22:08.768Z,1003.1
2022-11-24T12:23:12.491Z,1003.1
2022-11-24T12:24:15.343Z,1003.1
2022-11-24T12:25:18.494Z,1003.2
2022-11-24T12:26:21.386Z,1003.2
2022-11-24T12:27:24.387Z,1003.2
2022-11-24T12:28:27.814Z,1003.2
2022-11-24T12:29:31.039Z,1003.2
2022-11-24T12:30:35.868Z,1003.2
2022-11-24T12:31:39.039Z,1003.2
2022-11-24T12:32:42.870Z,1003.1
2022-11-24T12:33:55.329Z,1003.1
2022-11-24T12:35:04.199Z,1003.2
2022-11-24T12:36:07.350Z,1003.1
2022-11-24T12:37:11.025Z,1003.1
2022-11-24T12:38:14.672Z,1003.1
2022-11-24T12:39:17.565Z,1003.2
2022-11-24T12:40:20.340Z,1003.2
2022-11-24T12:41:54.124Z,1003.1
2022-11-24T12:42:57.483Z,1003.2
2022-11-24T12:44:00.176Z,1003.2
2022-11-24T12:45:03.805Z,1003.2
2022-11-24T12:46:16.968Z,1003.2
2022-11-24T12:47:20.776Z,1003.2
2022-11-24T12:48:24.149Z,1003.2
2022-11-24T12:49:27.523Z,1003.2
2022-11-24T12:50:30.637Z,1003.3
2022-11-24T12:51:34.369Z,1003.2
2022-11-24T12:52:38.081Z,1003.2
2022-11-24T12:53:41.544Z,1003.3
2022-11-24T12:54:44.077Z,1003.2
2022-11-24T12:55:46.572Z,1003.3
2022-11-24T12:56:49.822Z,1003.3
2022-11-24T12:57:53.622Z,1003.3
2022-11-24T12:58:56.745Z,1003.3
2022-11-24T12:59:59.456Z,1003.3
2022-11-24T13:01:02.878Z,1003.4
2022-11-24T13:02:06.475Z,1003.3
2022-11-24T13:03:10.496Z,1003.3
2022-11-24T13:04:13.659Z,1003.4
2022-11-24T13:05:17.663Z,1003.3
2022-11-24T13:06:21.264Z,1003.3
2022-11-24T13:07:24.800Z,1003.4
2022-11-24T13:08:28.410Z,1003.3
2022-11-24T13:09:32.157Z,1003.4
2022-11-24T13:11:05.862Z,1003.4
2022-11-24T13:12:09.215Z,1003.4
2022-11-24T13:13:12.030Z,1003.4
2022-11-24T13:14:15.480Z,1003.4
2022-11-24T13:15:46.205Z,1003.4
2022-11-24T13:25:16.373Z,1003.5
2022-11-24T13:26:20.110Z,1003.5
2022-11-24T13:27:24.196Z,1003.5
2022-11-24T13:29:06.001Z,1003.5
2022-11-24T13:30:28.043Z,1003.5
2022-11-24T13:31:31.306Z,1003.5
2022-11-24T13:32:34.519Z,1003.5
2022-11-24T13:33:37.568Z,1003.5
2022-11-24T13:34:40.592Z,1003.5
2022-11-24T13:35:44.090Z,1003.6
2022-11-24T13:36:47.440Z,1003.5
2022-11-24T13:37:50.516Z,1003.5
2022-11-24T13:38:53.755Z,1003.5
2022-11-24T13:39:56.827Z,1003.5
2022-11-24T13:41:28.876Z,1003.6
2022-11-24T13:42:44.473Z,1003.6
2022-11-24T13:43:47.044Z,1003.6
2022-11-24T13:44:50.385Z,1003.5
2022-11-24T13:45:53.817Z,1003.6
2022-11-24T13:47:06.476Z,1003.5
2022-11-24T13:48:10.194Z,1003.6
2022-11-24T13:49:13.224Z,1003.6